createdAt,value
2023-03-25T00:00:53.370Z,76.80
2023-03-25T00:06:21.757Z,76.90
2023-03-25T00:11:53.094Z,76.80
2023-03-25T00:17:23.134Z,77.00
2023-03-25T00:22:51.457Z,76.80
2023-03-25T00:28:19.361Z,77.10
2023-03-25T00:33:47.129Z,76.70
2023-03-25T00:39:14.983Z,76.70
2023-03-25T00:44:43.143Z,76.50
2023-03-25T00:50:14.925Z,75.80
2023-03-25T00:55:43.718Z,76.40
2023-03-25T01:01:23.544Z,76.40
2023-03-25T01:06:52.173Z,76.20
2023-03-25T01:12:20.331Z,76.00
2023-03-25T01:17:48.234Z,75.80
2023-03-25T01:23:17.429Z,75.30
2023-03-25T01:28:46.084Z,75.00
2023-03-25T01:34:15.502Z,74.40
2023-03-25T01:39:43.420Z,74.20
2023-03-25T01:45:32.875Z,74.00
2023-03-25T01:51:10.441Z,73.60
2023-03-25T01:56:42.368Z,73.50
2023-03-25T02:02:17.820Z,73.40
2023-03-25T02:07:51.429Z,73.20
2023-03-25T02:13:21.009Z,72.20
2023-03-25T02:19:33.165Z,72.80
2023-03-25T02:25:55.079Z,71.50
2023-03-25T02:31:49.060Z,72.10
2023-03-25T02:37:47.149Z,71.80
2023-03-25T02:43:33.732Z,71.60
2023-03-25T02:49:09.699Z,71.70
2023-03-25T02:54:43.764Z,71.80
2023-03-25T03:00:15.916Z,72.00
2023-03-25T03:05:50.932Z,71.70
2023-03-25T03:11:36.600Z,71.40
2023-03-25T03:17:46.294Z,70.80
2023-03-25T03:23:46.261Z,71.40
2023-03-25T03:29:21.066Z,71.30
2023-03-25T03:35:14.241Z,71.00
2023-03-25T03:40:50.750Z,71.00
2023-03-25T03:46:32.729Z,71.00
2023-03-25T03:52:14.871Z,71.20
2023-03-25T03:57:59.985Z,71.30
2023-03-25T04:03:38.859Z,70.80
2023-03-25T04:09:27.453Z,71.50
2023-03-25T04:14:56.569Z,71.60
2023-03-25T04:20:26.206Z,71.10
2023-03-25T04:25:54.163Z,71.80
2023-03-25T04:31:26.167Z,71.00
2023-03-25T04:36:57.295Z,72.50
2023-03-25T04:48:06.085Z,70.90
2023-03-25T04:53:40.162Z,71.30
2023-03-25T04:59:11.993Z,71.20
2023-03-25T05:04:47.896Z,71.10
2023-03-25T05:10:22.242Z,70.80
2023-03-25T05:15:50.641Z,71.20
2023-03-25T05:21:19.013Z,71.50
2023-03-25T05:26:46.887Z,71.00
2023-03-25T05:32:17.763Z,70.80
2023-03-25T05:37:46.663Z,71.00
2023-03-25T05:43:16.183Z,70.80
2023-03-25T05:48:46.180Z,70.70
2023-03-25T05:59:49.030Z,69.90
2023-03-25T06:05:17.578Z,69.60
2023-03-25T06:16:13.819Z,69.60
2023-03-25T06:21:44.347Z,70.20
2023-03-25T06:27:20.218Z,70.60
2023-03-25T06:32:53.802Z,69.70
2023-03-25T06:38:22.036Z,68.10
2023-03-25T06:44:06.957Z,66.30
2023-03-25T06:49:46.708Z,69.00
2023-03-25T06:55:14.787Z,66.10
2023-03-25T07:00:43.659Z,65.90
2023-03-25T07:06:21.261Z,66.30
2023-03-25T07:11:52.324Z,66.70
2023-03-25T07:17:22.804Z,68.40
2023-03-25T07:22:51.049Z,67.40
2023-03-25T07:28:19.787Z,69.20
2023-03-25T07:33:53.842Z,67.80
2023-03-25T07:39:22.812Z,66.20
2023-03-25T07:50:24.940Z,67.70
2023-03-25T07:55:53.969Z,68.40
2023-03-25T08:06:53.356Z,67.80
2023-03-25T08:12:21.468Z,68.50
2023-03-25T08:17:52.207Z,67.50
2023-03-25T08:23:22.447Z,68.10
2023-03-25T08:28:50.310Z,68.00
2023-03-25T08:34:21.247Z,68.10
2023-03-25T08:39:58.847Z,68.10
2023-03-25T08:45:26.885Z,68.60
2023-03-25T08:50:57.342Z,69.10
2023-03-25T08:56:26.180Z,67.60
2023-03-25T09:07:24.699Z,67.70
2023-03-25T09:18:23.719Z,67.70
2023-03-25T09:23:51.822Z,69.80
2023-03-25T09:29:20.886Z,66.80
2023-03-25T09:40:23.528Z,66.60
2023-03-25T09:45:52.849Z,66.90
2023-03-25T09:51:29.974Z,66.30
2023-03-25T09:57:06.492Z,64.70
2023-03-25T10:02:42.179Z,63.90
2023-03-25T10:08:49.221Z,63.20
2023-03-25T10:14:29.105Z,62.50
2023-03-25T10:20:31.142Z,62.20
2023-03-25T10:26:14.188Z,61.80
2023-03-25T10:31:53.159Z,61.80
2023-03-25T10:37:32.708Z,61.10
2023-03-25T10:43:19.276Z,60.50
2023-03-25T10:48:48.688Z,60.50
2023-03-25T10:54:18.071Z,60.90
2023-03-25T11:00:20.941Z,61.50
2023-03-25T11:05:49.537Z,61.90
2023-03-25T11:11:19.272Z,61.90
2023-03-25T11:16:57.260Z,61.80
2023-03-25T11:22:32.178Z,60.70
2023-03-25T11:28:06.196Z,60.20
2023-03-25T11:33:34.362Z,60.30
2023-03-25T11:39:17.609Z,61.90
2023-03-25T11:44:55.565Z,62.10
2023-03-25T11:50:29.546Z,60.30
2023-03-25T11:56:11.711Z,59.30
2023-03-25T12:01:50.654Z,59.90
2023-03-25T12:07:21.688Z,59.70
2023-03-25T12:13:17.356Z,59.30
2023-03-25T12:19:22.464Z,58.80
2023-03-25T12:25:18.226Z,58.80
2023-03-25T12:31:11.520Z,58.70
2023-03-25T12:36:55.362Z,58.40
2023-03-25T12:42:30.554Z,58.30
2023-03-25T12:48:28.665Z,58.60
2023-03-25T12:54:34.837Z,58.70
2023-03-25T13:00:36.418Z,58.90
2023-03-25T13:06:30.530Z,58.80
2023-03-25T13:12:07.370Z,57.90
2023-03-25T13:17:46.495Z,58.20
2023-03-25T13:23:21.627Z,57.80
2023-03-25T13:28:58.296Z,57.00
2023-03-25T13:34:44.008Z,57.20
2023-03-25T13:40:22.505Z,57.90
2023-03-25T13:46:09.682Z,57.10
2023-03-25T13:51:37.845Z,57.70
2023-03-25T13:57:35.350Z,57.00
2023-03-25T14:03:24.350Z,56.10
2023-03-25T14:09:38.342Z,55.10
2023-03-25T14:15:20.999Z,54.60
2023-03-25T14:20:50.602Z,51.10
2023-03-25T14:26:20.011Z,51.20
2023-03-25T14:32:26.897Z,50.30
2023-03-25T14:37:54.810Z,47.80
2023-03-25T14:43:53.313Z,46.40
2023-03-25T14:49:23.271Z,45.30
2023-03-25T14:54:56.746Z,45.60
2023-03-25T15:00:31.563Z,45.50
2023-03-25T15:06:01.170Z,45.50
2023-03-25T15:11:39.366Z,43.50
2023-03-25T15:17:34.613Z,43.70
2023-03-25T15:23:33.142Z,47.30
2023-03-25T15:29:55.778Z,49.00
2023-03-25T15:35:52.669Z,49.60
2023-03-25T15:41:23.233Z,50.80
2023-03-25T15:47:48.311Z,52.40
2023-03-25T15:53:53.572Z,52.30
2023-03-25T15:59:45.112Z,53.50
2023-03-25T16:05:16.456Z,54.40
2023-03-25T16:10:46.453Z,55.10
2023-03-25T16:16:17.661Z,53.20
2023-03-25T16:21:49.842Z,50.90
2023-03-25T16:27:31.961Z,50.80
2023-03-25T16:33:10.481Z,52.70
2023-03-25T16:38:38.443Z,53.70
2023-03-25T16:44:07.235Z,54.60
2023-03-25T16:49:37.474Z,55.30
2023-03-25T16:55:14.761Z,56.40
2023-03-25T17:00:43.659Z,56.30
2023-03-25T17:06:35.302Z,56.70
2023-03-25T17:12:10.127Z,56.90
2023-03-25T17:18:00.046Z,57.10
2023-03-25T17:23:46.446Z,57.30
2023-03-25T17:29:16.015Z,57.80
2023-03-25T17:34:45.627Z,59.10
2023-03-25T17:40:25.969Z,60.00
2023-03-25T17:45:53.956Z,59.70
2023-03-25T17:51:22.480Z,60.30
2023-03-25T17:56:50.641Z,62.10
2023-03-25T18:02:21.429Z,61.80
2023-03-25T18:07:51.805Z,61.50
2023-03-25T18:13:22.680Z,62.40
2023-03-25T18:18:53.740Z,62.50
2023-03-25T18:24:28.971Z,62.40
2023-03-25T18:29:59.549Z,62.90
2023-03-25T18:35:27.539Z,63.00
2023-03-25T18:40:57.332Z,63.50
2023-03-25T18:46:26.861Z,63.60
2023-03-25T18:51:59.295Z,64.90
2023-03-25T18:57:27.381Z,65.60
2023-03-25T19:02:56.782Z,65.50
2023-03-25T19:08:26.590Z,65.80
2023-03-25T19:13:56.150Z,66.60
2023-03-25T19:19:33.286Z,66.50
2023-03-25T19:25:02.289Z,67.30
2023-03-25T19:30:31.814Z,67.10
2023-03-25T19:36:04.319Z,66.90
2023-03-25T19:41:35.298Z,67.50
2023-03-25T19:47:04.028Z,68.00
2023-03-25T19:52:33.916Z,67.80
2023-03-25T19:58:02.815Z,68.10
2023-03-25T20:03:33.009Z,66.80
2023-03-25T20:14:29.462Z,67.60
2023-03-25T20:19:57.892Z,68.90
2023-03-25T20:25:25.948Z,68.40
2023-03-25T20:30:55.523Z,68.40
2023-03-25T20:36:23.476Z,68.30
2023-03-25T20:41:52.023Z,68.40
2023-03-25T20:47:20.033Z,68.60
2023-03-25T20:52:49.051Z,68.50
2023-03-25T20:58:18.217Z,68.60
2023-03-25T21:03:51.930Z,68.60
2023-03-25T21:09:20.123Z,68.50
2023-03-25T21:14:48.487Z,68.70
2023-03-25T21:20:16.899Z,68.80
2023-03-25T21:26:00.899Z,68.80
2023-03-25T21:31:38.537Z,68.80
2023-03-25T21:37:08.590Z,69.10
2023-03-25T21:42:46.729Z,69.00
2023-03-25T21:48:23.769Z,69.00
2023-03-25T21:53:54.602Z,69.00
2023-03-25T21:59:29.027Z,69.20
2023-03-25T22:05:02.239Z,69.20
2023-03-25T22:10:33.821Z,69.20
2023-03-25T22:16:02.506Z,69.30
2023-03-25T22:21:37.787Z,69.30
2023-03-25T22:27:10.236Z,69.30
2023-03-25T22:32:41.337Z,69.40
2023-03-25T22:38:16.909Z,69.40
2023-03-25T22:43:49.409Z,69.40
2023-03-25T22:49:22.914Z,69.50
2023-03-25T22:54:53.934Z,69.40
2023-03-25T23:00:33.167Z,69.30
2023-03-25T23:06:08.286Z,69.40
2023-03-25T23:11:52.011Z,69.40
2023-03-25T23:17:31.295Z,69.50
2023-03-25T23:23:06.602Z,69.50
2023-03-25T23:28:39.629Z,69.50
2023-03-25T23:34:18.902Z,69.40
2023-03-25T23:39:46.721Z,69.40
2023-03-25T23:45:15.803Z,69.30
2023-03-25T23:50:47.312Z,69.20
2023-03-25T23:56:20.048Z,69.10
